Strona główna
METAR-TAF:

METAR-TAF

Lotnisko :

Port lotniczy Ostenda-Brugia

Ostenda, Belgia

Szerokość geograficzna: 51-12N, Długość geograficzna: 002-52E, wysokość: 4 m

Aktualna obserwacja pogody

Raport powstał 21 minut temu, godzina 19:50 UTC
Wiatr 6 kt od północno-północny wschód
Temperatura 15°C
Wilgotność 72%
Ciśnienie 1021 hPa
Widzialność 10 km lub więcej
Mało chmury na wysokości 1800 ft
Przerywane chmury na wysokości 2500 ft

METAR: EBOS 151950Z 03006KT 9999 FEW018 BKN025 15/10 Q1021 NOSIG

czas: 22:11 (20:11 UTC)

Prognoza

Raport powstał 3 godziny i 2 minut temu, godzina 17:09 UTC
Prognoza ważna od 15 godzina 18 UTC do 16 godzina 24 UTC
Wiatr 8 kt od północ
Widzialność 10 km lub więcej
Przerywane chmury na wysokości 3000 ft

TAF: EBOS 151709Z 1518/1624 01008KT 9999 BKN030

Obserwacja i prognoza pogody dla ponad 4000 lotnisk (raport METAR i TAF).

Dostępne stacje oznaczono żółtymi i czerwonymi punktami na mapie.

Najedź kursorem aby zobaczyć nazwę stacji.

Kliknij aby zobaczyć obserwacje i prognozy pogody.

Aby zmienić mapę: kliknij na zielony przycisk z czarnym krzyżykiem, aby powiększyć; na zielony przycisk z myślnikiem, aby pomniejszyć; na zielone strzałki, aby przejść do map sąsiednich.


METAR-TAF: